createdAt,value
2022-10-02T00:02:11.171Z,17.70
2022-10-02T00:04:52.912Z,17.70
2022-10-02T00:07:24.818Z,17.80
2022-10-02T00:09:58.529Z,17.70
2022-10-02T00:12:28.947Z,17.90
2022-10-02T00:15:02.154Z,17.80
2022-10-02T00:17:34.647Z,17.70
2022-10-02T00:20:01.495Z,17.70
2022-10-02T00:22:50.597Z,17.70
2022-10-02T00:25:28.796Z,17.70
2022-10-02T00:28:26.277Z,17.70
2022-10-02T00:31:14.580Z,17.70
2022-10-02T00:33:59.961Z,17.80
2022-10-02T00:36:47.701Z,17.70
2022-10-02T00:39:55.883Z,17.70
2022-10-02T00:42:50.665Z,17.70
2022-10-02T00:45:56.883Z,17.70
2022-10-02T00:48:59.840Z,17.70
2022-10-02T00:51:57.515Z,17.70
2022-10-02T00:55:03.920Z,17.70
2022-10-02T00:57:51.571Z,17.70
2022-10-02T01:00:19.521Z,17.60
2022-10-02T01:03:04.085Z,17.70
2022-10-02T01:05:31.061Z,17.70
2022-10-02T01:07:57.732Z,17.70
2022-10-02T01:10:25.430Z,17.70
2022-10-02T01:12:53.788Z,17.70
2022-10-02T01:15:23.402Z,17.70
2022-10-02T01:17:51.573Z,17.60
2022-10-02T01:20:21.969Z,17.70
2022-10-02T01:23:03.586Z,17.70
2022-10-02T01:25:30.285Z,17.60
2022-10-02T01:27:57.325Z,17.60
2022-10-02T01:30:24.298Z,17.70
2022-10-02T01:32:55.972Z,17.70
2022-10-02T01:35:27.951Z,17.70
2022-10-02T01:37:55.198Z,17.70
2022-10-02T01:40:34.111Z,17.60
2022-10-02T01:43:09.237Z,17.70
2022-10-02T01:46:07.979Z,17.70
2022-10-02T01:48:54.636Z,17.70
2022-10-02T01:51:33.178Z,17.70
2022-10-02T01:54:28.672Z,17.80
2022-10-02T01:57:02.606Z,17.70
2022-10-02T01:59:52.801Z,17.70
2022-10-02T02:02:41.953Z,17.60
2022-10-02T02:05:35.282Z,17.70
2022-10-02T02:08:30.871Z,17.70
2022-10-02T02:11:21.239Z,17.70
2022-10-02T02:13:56.605Z,17.70
2022-10-02T02:16:36.627Z,17.70
2022-10-02T02:19:11.486Z,17.70
2022-10-02T02:22:00.777Z,17.70
2022-10-02T02:24:39.435Z,17.70
2022-10-02T02:27:10.488Z,17.60
2022-10-02T02:29:39.620Z,17.60
2022-10-02T02:32:10.808Z,17.60
2022-10-02T02:34:46.436Z,17.60
2022-10-02T02:37:19.007Z,17.50
2022-10-02T02:40:03.297Z,17.70
2022-10-02T02:42:32.533Z,17.70
2022-10-02T02:45:10.443Z,17.70
2022-10-02T02:47:45.305Z,17.60
2022-10-02T02:50:21.689Z,17.70
2022-10-02T02:52:55.369Z,17.50
2022-10-02T02:55:32.786Z,17.70
2022-10-02T02:58:27.881Z,15.70
2022-10-02T03:00:55.028Z,17.70
2022-10-02T03:03:22.226Z,17.70
2022-10-02T03:06:19.234Z,17.60
2022-10-02T03:08:48.259Z,17.60
2022-10-02T03:11:17.617Z,17.80
2022-10-02T03:14:24.835Z,17.50
2022-10-02T03:17:01.052Z,17.50
2022-10-02T03:19:40.957Z,17.70
2022-10-02T03:24:49.776Z,17.60
2022-10-02T03:27:24.898Z,17.70
2022-10-02T03:30:00.490Z,17.70
2022-10-02T03:32:28.808Z,17.80
2022-10-02T03:34:57.122Z,17.60
2022-10-02T03:37:25.399Z,17.60
2022-10-02T03:39:52.456Z,17.60
2022-10-02T03:42:26.823Z,17.70
2022-10-02T03:47:20.416Z,17.80
2022-10-02T03:49:47.000Z,17.60
2022-10-02T03:52:18.691Z,17.70
2022-10-02T03:54:46.106Z,17.70
2022-10-02T03:57:19.780Z,17.70
2022-10-02T04:00:12.354Z,17.80
2022-10-02T04:02:52.097Z,17.70
2022-10-02T04:05:41.084Z,17.70
2022-10-02T04:08:28.527Z,17.70
2022-10-02T04:11:09.193Z,17.50
2022-10-02T04:13:47.036Z,17.60
2022-10-02T04:16:20.170Z,17.70
2022-10-02T04:18:55.997Z,17.50
2022-10-02T04:23:56.305Z,17.70
2022-10-02T04:26:30.397Z,17.90
2022-10-02T04:29:05.368Z,17.70
2022-10-02T04:34:02.878Z,17.60
2022-10-02T04:36:50.880Z,17.70
2022-10-02T04:39:35.865Z,17.70
2022-10-02T04:42:42.373Z,17.70
2022-10-02T04:46:02.750Z,17.60
2022-10-02T04:49:06.614Z,17.60
2022-10-02T04:52:01.441Z,17.60
2022-10-02T04:54:34.095Z,18.00
2022-10-02T04:57:35.942Z,17.60
2022-10-02T05:02:41.450Z,17.70
2022-10-02T05:05:08.209Z,17.70
2022-10-02T05:08:02.210Z,17.70
2022-10-02T05:11:03.788Z,17.80
2022-10-02T05:13:38.938Z,17.70
2022-10-02T05:16:17.358Z,17.70
2022-10-02T05:19:19.166Z,17.60
2022-10-02T05:22:00.393Z,17.80
2022-10-02T05:24:48.326Z,17.60
2022-10-02T05:27:50.392Z,17.50
2022-10-02T05:30:18.781Z,17.70
2022-10-02T05:32:45.321Z,17.60
2022-10-02T05:35:17.493Z,17.70
2022-10-02T05:38:25.008Z,17.70
2022-10-02T05:41:24.967Z,17.70
2022-10-02T05:44:04.248Z,17.70
2022-10-02T05:46:37.062Z,17.60
2022-10-02T05:49:12.998Z,17.60
2022-10-02T05:52:02.366Z,17.70
2022-10-02T05:54:50.843Z,17.70
2022-10-02T05:57:34.986Z,17.70
2022-10-02T06:00:20.707Z,17.60
2022-10-02T06:03:13.056Z,17.60
2022-10-02T06:06:13.100Z,17.60
2022-10-02T06:08:46.061Z,17.70
2022-10-02T06:11:28.125Z,17.70
2022-10-02T06:14:07.242Z,17.70
2022-10-02T06:16:44.302Z,17.60
2022-10-02T06:19:27.054Z,17.70
2022-10-02T06:21:59.646Z,17.70
2022-10-02T06:24:42.818Z,17.70
2022-10-02T06:27:17.574Z,17.70
2022-10-02T06:29:57.660Z,17.70
2022-10-02T06:32:42.666Z,17.60
2022-10-02T06:35:15.683Z,17.70
2022-10-02T06:38:05.229Z,17.70
2022-10-02T06:41:20.867Z,17.70
2022-10-02T06:44:11.668Z,17.70
2022-10-02T06:46:38.493Z,17.70
2022-10-02T06:49:16.740Z,17.70
2022-10-02T06:51:59.164Z,17.70
2022-10-02T06:55:13.932Z,17.70
2022-10-02T06:57:48.402Z,17.70
2022-10-02T07:00:18.675Z,17.70
2022-10-02T07:02:51.500Z,17.70
2022-10-02T07:05:53.291Z,17.70
2022-10-02T07:08:43.033Z,17.70
2022-10-02T07:11:40.902Z,17.70
2022-10-02T07:14:34.973Z,17.70
2022-10-02T07:17:54.596Z,17.70
2022-10-02T07:20:54.412Z,17.70
2022-10-02T07:23:35.781Z,17.60
2022-10-02T07:26:12.218Z,17.70
2022-10-02T07:28:45.396Z,17.70
2022-10-02T07:31:25.744Z,17.60
2022-10-02T07:34:02.619Z,17.70
2022-10-02T07:36:47.104Z,17.70
2022-10-02T07:52:08.054Z,17.70
2022-10-02T07:54:43.736Z,17.70
2022-10-02T07:57:26.447Z,17.70
2022-10-02T07:59:59.298Z,17.70
2022-10-02T08:03:01.278Z,17.70
2022-10-02T08:05:35.784Z,17.70
2022-10-02T08:08:34.049Z,17.70
2022-10-02T08:11:11.736Z,17.60
2022-10-02T08:13:49.668Z,17.70
2022-10-02T08:16:20.036Z,17.70
2022-10-02T08:18:56.862Z,17.70
2022-10-02T08:21:25.588Z,17.70
2022-10-02T08:24:06.910Z,17.70
2022-10-02T08:26:38.923Z,17.70
2022-10-02T08:29:17.781Z,19.70
2022-10-02T08:31:44.814Z,15.60
2022-10-02T08:34:23.611Z,17.70
2022-10-02T08:37:15.259Z,17.70
2022-10-02T08:40:09.550Z,17.70
2022-10-02T08:43:09.968Z,17.70
2022-10-02T08:45:51.528Z,17.70
2022-10-02T08:48:59.107Z,17.70
2022-10-02T08:51:47.061Z,17.80
2022-10-02T08:54:38.635Z,17.90
2022-10-02T08:57:37.754Z,17.90
2022-10-02T09:00:19.888Z,18.00
2022-10-02T09:03:07.900Z,18.00
2022-10-02T09:06:01.549Z,18.00
2022-10-02T09:09:02.702Z,18.00
2022-10-02T09:12:01.531Z,17.90
2022-10-02T09:14:50.637Z,17.90
2022-10-02T09:17:32.379Z,17.90
2022-10-02T09:20:04.954Z,17.90
2022-10-02T09:23:08.076Z,17.90
2022-10-02T09:26:11.646Z,17.90
2022-10-02T09:29:02.455Z,17.90
2022-10-02T09:32:00.450Z,17.90
2022-10-02T09:34:30.055Z,17.90
2022-10-02T09:37:32.510Z,17.90
2022-10-02T09:40:31.345Z,17.90
2022-10-02T09:43:03.943Z,18.00
2022-10-02T09:46:04.004Z,18.00
2022-10-02T09:48:47.725Z,18.00
2022-10-02T09:51:43.297Z,18.00
2022-10-02T09:54:42.945Z,18.00
2022-10-02T09:57:37.387Z,18.00
2022-10-02T10:00:25.581Z,18.00
2022-10-02T10:03:18.889Z,18.10
2022-10-02T10:06:06.687Z,18.10
2022-10-02T10:09:23.593Z,18.10
2022-10-02T10:12:11.281Z,18.10
2022-10-02T10:15:17.077Z,18.10
2022-10-02T10:18:19.767Z,18.10
2022-10-02T10:21:14.553Z,18.10
2022-10-02T10:24:20.633Z,18.10
2022-10-02T10:27:19.842Z,18.10
2022-10-02T10:29:55.196Z,18.10
2022-10-02T10:32:51.827Z,18.10
2022-10-02T10:35:56.023Z,18.10
2022-10-02T10:38:52.082Z,18.10
2022-10-02T10:41:32.826Z,18.10
2022-10-02T10:44:07.800Z,18.10
2022-10-02T10:46:56.317Z,18.10
2022-10-02T10:49:22.879Z,18.10
2022-10-02T10:51:52.399Z,18.10
2022-10-02T10:54:48.415Z,18.10
2022-10-02T10:57:45.420Z,18.10
2022-10-02T11:00:26.355Z,18.10
2022-10-02T11:03:20.456Z,18.10
2022-10-02T11:06:14.361Z,18.20
2022-10-02T11:09:11.371Z,18.10
2022-10-02T11:12:12.750Z,18.20
2022-10-02T11:15:03.096Z,18.20
2022-10-02T11:17:58.031Z,18.20
2022-10-02T11:21:02.854Z,18.10
2022-10-02T11:23:57.795Z,18.20
2022-10-02T11:26:54.699Z,18.20
2022-10-02T11:29:50.812Z,18.20
2022-10-02T11:32:42.150Z,18.10
2022-10-02T11:35:29.105Z,18.30
2022-10-02T11:38:23.352Z,18.40
2022-10-02T11:41:08.096Z,18.40
2022-10-02T11:43:43.879Z,18.50
2022-10-02T11:46:35.242Z,18.40
2022-10-02T11:49:34.289Z,18.40
2022-10-02T11:52:47.364Z,18.40
2022-10-02T11:55:37.690Z,18.50
2022-10-02T11:58:25.710Z,18.50
2022-10-02T12:01:24.292Z,18.50
2022-10-02T12:04:22.206Z,18.60
2022-10-02T12:07:09.920Z,18.60
2022-10-02T12:09:57.560Z,18.60
2022-10-02T12:12:39.018Z,18.60
2022-10-02T12:15:17.752Z,18.60
2022-10-02T12:18:19.471Z,18.60
2022-10-02T12:21:27.927Z,18.60
2022-10-02T12:24:42.695Z,18.60
2022-10-02T12:27:31.073Z,18.60
2022-10-02T12:30:16.099Z,18.70
2022-10-02T12:32:52.747Z,18.70
2022-10-02T12:35:19.409Z,18.60
2022-10-02T12:38:16.159Z,18.50
2022-10-02T12:41:19.618Z,18.70
2022-10-02T12:44:21.929Z,18.70
2022-10-02T12:47:29.081Z,18.60
2022-10-02T12:50:33.468Z,18.70
2022-10-02T12:53:15.046Z,18.70
2022-10-02T12:55:53.357Z,18.80
2022-10-02T12:58:29.305Z,18.80
2022-10-02T13:01:31.679Z,18.80
2022-10-02T13:04:26.511Z,18.80
2022-10-02T13:07:13.473Z,18.70
2022-10-02T13:09:59.754Z,18.80
2022-10-02T13:12:43.884Z,18.80
2022-10-02T13:15:37.067Z,18.80
2022-10-02T13:18:25.192Z,18.80
2022-10-02T13:23:31.927Z,18.80
2022-10-02T13:26:27.297Z,18.80
2022-10-02T13:29:05.802Z,18.80
2022-10-02T13:32:00.111Z,18.90
2022-10-02T13:34:40.349Z,18.90
2022-10-02T13:37:22.151Z,18.90
2022-10-02T13:40:12.608Z,18.90
2022-10-02T13:42:52.502Z,18.90
2022-10-02T13:45:29.316Z,19.00
2022-10-02T13:48:08.045Z,19.00
2022-10-02T13:51:05.726Z,19.00
2022-10-02T13:53:38.368Z,19.00
2022-10-02T13:56:20.704Z,19.10
2022-10-02T13:59:04.534Z,19.00
2022-10-02T14:01:41.052Z,19.10
2022-10-02T14:04:27.241Z,19.10
2022-10-02T14:07:15.486Z,19.20
2022-10-02T14:10:10.851Z,19.20
2022-10-02T14:15:26.207Z,19.20
2022-10-02T14:18:19.657Z,19.30
2022-10-02T14:21:07.987Z,19.30
2022-10-02T14:23:34.581Z,19.30
2022-10-02T14:26:24.144Z,19.30
2022-10-02T14:28:56.764Z,19.30
2022-10-02T14:31:42.416Z,19.30
2022-10-02T14:34:42.698Z,19.40
2022-10-02T14:37:31.265Z,19.40
2022-10-02T14:40:00.622Z,19.40
2022-10-02T14:42:57.814Z,19.40
2022-10-02T14:45:53.099Z,19.40
2022-10-02T14:48:44.806Z,19.40
2022-10-02T14:51:52.769Z,19.50
2022-10-02T14:54:31.268Z,19.50
2022-10-02T14:57:17.339Z,19.50
2022-10-02T15:00:18.307Z,19.40
2022-10-02T15:02:56.274Z,19.50
2022-10-02T15:05:37.914Z,19.50
2022-10-02T15:08:39.760Z,19.50
2022-10-02T15:11:20.699Z,19.50
2022-10-02T15:13:55.550Z,19.50
2022-10-02T15:16:50.998Z,19.50
2022-10-02T15:19:21.667Z,19.60
2022-10-02T15:22:16.922Z,19.50
2022-10-02T15:24:46.294Z,19.40
2022-10-02T15:27:49.609Z,19.50
2022-10-02T15:30:19.446Z,19.50
2022-10-02T15:33:11.456Z,19.50
2022-10-02T15:36:15.783Z,19.50
2022-10-02T15:38:47.806Z,19.60
2022-10-02T15:41:40.164Z,19.60
2022-10-02T15:44:44.310Z,19.60
2022-10-02T15:47:23.095Z,19.70
2022-10-02T15:50:14.647Z,19.70
2022-10-02T15:53:22.507Z,19.70
2022-10-02T15:55:54.881Z,19.70
2022-10-02T15:58:27.877Z,19.70
2022-10-02T16:01:00.867Z,19.60
2022-10-02T16:04:01.811Z,19.70
2022-10-02T16:07:12.491Z,19.80
2022-10-02T16:09:57.458Z,19.70
2022-10-02T16:12:34.338Z,19.80
2022-10-02T16:15:16.793Z,19.80
2022-10-02T16:18:19.681Z,19.70
2022-10-02T16:20:55.358Z,19.80
2022-10-02T16:23:48.928Z,19.80
2022-10-02T16:26:21.140Z,19.80
2022-10-02T16:28:53.918Z,19.80
2022-10-02T16:31:40.331Z,19.80
2022-10-02T16:34:23.405Z,19.80
2022-10-02T16:37:16.173Z,19.80
2022-10-02T16:39:53.323Z,19.80
2022-10-02T16:42:40.911Z,19.90
2022-10-02T16:45:48.877Z,19.90
2022-10-02T16:48:23.348Z,19.90
2022-10-02T16:51:04.416Z,19.90
2022-10-02T16:54:09.853Z,19.80
2022-10-02T16:56:59.112Z,19.90
2022-10-02T16:59:38.009Z,19.90
2022-10-02T17:02:34.200Z,19.90
2022-10-02T17:05:24.590Z,19.90
2022-10-02T17:08:33.963Z,19.90
2022-10-02T17:11:19.072Z,19.90
2022-10-02T17:14:11.409Z,19.90
2022-10-02T17:17:17.627Z,19.90
2022-10-02T17:19:49.931Z,20.00
2022-10-02T17:22:33.271Z,20.00
2022-10-02T17:25:26.831Z,20.00
2022-10-02T17:28:00.995Z,20.00
2022-10-02T17:30:43.200Z,20.00
2022-10-02T17:33:13.055Z,20.00
2022-10-02T17:35:47.360Z,20.00
2022-10-02T17:38:25.526Z,20.00
2022-10-02T17:41:06.240Z,20.00
2022-10-02T17:44:10.465Z,20.00
2022-10-02T17:46:56.485Z,20.00
2022-10-02T17:49:30.874Z,20.00
2022-10-02T17:52:31.833Z,20.00
2022-10-02T17:55:35.096Z,20.00
2022-10-02T17:58:16.874Z,20.00
2022-10-02T18:01:07.597Z,20.10
2022-10-02T18:03:55.401Z,20.10
2022-10-02T18:06:44.673Z,20.00
2022-10-02T18:10:02.389Z,20.10
2022-10-02T18:12:51.668Z,20.10
2022-10-02T18:15:50.033Z,20.10
2022-10-02T18:18:40.737Z,20.10
2022-10-02T18:21:13.046Z,20.10
2022-10-02T18:23:48.417Z,20.20
2022-10-02T18:26:43.574Z,20.10
2022-10-02T18:29:34.612Z,20.10
2022-10-02T18:32:43.422Z,20.10
2022-10-02T18:35:34.247Z,20.10
2022-10-02T18:38:12.076Z,20.10
2022-10-02T18:40:55.713Z,20.10
2022-10-02T18:43:51.673Z,20.10
2022-10-02T18:46:25.960Z,20.10
2022-10-02T18:49:46.917Z,20.10
2022-10-02T18:52:31.575Z,20.10
2022-10-02T18:55:28.056Z,20.10
2022-10-02T18:58:21.354Z,20.10
2022-10-02T19:00:59.971Z,20.10
2022-10-02T19:03:44.739Z,20.10
2022-10-02T19:06:31.404Z,20.00
2022-10-02T19:09:07.062Z,20.10
2022-10-02T19:11:45.913Z,20.10
2022-10-02T19:14:23.182Z,20.10
2022-10-02T19:16:58.509Z,20.10
2022-10-02T19:19:27.836Z,20.10
2022-10-02T19:22:00.585Z,20.10
2022-10-02T19:24:37.886Z,20.10
2022-10-02T19:27:08.025Z,20.20
2022-10-02T19:29:39.598Z,20.20
2022-10-02T19:32:18.323Z,20.20
2022-10-02T19:34:49.648Z,20.20
2022-10-02T19:37:18.372Z,20.20
2022-10-02T19:39:53.221Z,20.20
2022-10-02T19:42:25.202Z,20.20
2022-10-02T19:45:03.601Z,20.20
2022-10-02T19:47:47.025Z,20.20
2022-10-02T19:50:37.793Z,20.30
2022-10-02T19:53:16.140Z,20.20
2022-10-02T19:55:43.974Z,20.30
2022-10-02T19:58:39.114Z,20.30
2022-10-02T20:01:14.622Z,20.30
2022-10-02T20:03:42.632Z,20.30
2022-10-02T20:06:16.771Z,20.30
2022-10-02T20:08:46.374Z,20.20
2022-10-02T20:11:36.236Z,20.30
2022-10-02T20:14:07.146Z,20.20
2022-10-02T20:16:52.832Z,20.20
2022-10-02T20:19:25.781Z,20.20
2022-10-02T20:21:57.013Z,20.30
2022-10-02T20:24:40.088Z,20.20
2022-10-02T20:27:13.016Z,20.20
2022-10-02T20:29:48.272Z,20.30
2022-10-02T20:32:21.229Z,20.30
2022-10-02T20:34:53.605Z,20.30
2022-10-02T20:37:29.277Z,20.30
2022-10-02T20:40:03.030Z,20.30
2022-10-02T20:43:00.853Z,20.30
2022-10-02T20:45:39.247Z,20.20
2022-10-02T20:49:08.113Z,20.30
2022-10-02T20:51:54.836Z,20.30
2022-10-02T20:54:34.076Z,20.30
2022-10-02T20:57:20.235Z,20.30
2022-10-02T21:00:09.688Z,20.30
2022-10-02T21:02:55.035Z,20.20
2022-10-02T21:05:48.609Z,20.20
2022-10-02T21:08:46.909Z,20.20
2022-10-02T21:11:27.503Z,20.20
2022-10-02T21:14:25.163Z,20.20
2022-10-02T21:17:37.961Z,20.20
2022-10-02T21:20:50.992Z,20.20
2022-10-02T21:23:29.095Z,20.20
2022-10-02T21:26:32.889Z,17.90
2022-10-02T21:29:19.700Z,20.20
2022-10-02T21:32:22.580Z,20.20
2022-10-02T21:35:00.070Z,20.20
2022-10-02T21:38:00.149Z,20.20
2022-10-02T21:40:51.272Z,20.20
2022-10-02T21:43:36.465Z,20.20
2022-10-02T21:46:32.298Z,20.20
2022-10-02T21:49:14.298Z,20.20
2022-10-02T21:52:04.556Z,20.20
2022-10-02T21:54:57.217Z,20.20
2022-10-02T21:57:50.392Z,20.20
2022-10-02T22:00:27.858Z,20.20
2022-10-02T22:03:12.283Z,20.20
2022-10-02T22:05:57.439Z,20.10
2022-10-02T22:08:34.288Z,20.20
2022-10-02T22:11:23.907Z,20.10
2022-10-02T22:13:54.969Z,20.10
2022-10-02T22:16:43.748Z,20.10
2022-10-02T22:19:25.057Z,20.20
2022-10-02T22:22:45.733Z,20.10
2022-10-02T22:25:48.962Z,20.10
2022-10-02T22:28:41.999Z,20.20
2022-10-02T22:31:22.560Z,20.10
2022-10-02T22:33:58.338Z,20.10
2022-10-02T22:36:49.401Z,20.10
2022-10-02T22:39:22.293Z,20.10
2022-10-02T22:42:05.568Z,20.10
2022-10-02T22:44:45.686Z,20.10
2022-10-02T22:47:18.121Z,20.10
2022-10-02T22:49:55.726Z,20.10
2022-10-02T22:52:24.907Z,20.10
2022-10-02T22:55:35.033Z,20.10
2022-10-02T22:58:05.548Z,20.10
2022-10-02T23:00:59.402Z,20.10
2022-10-02T23:03:36.205Z,20.10
2022-10-02T23:06:14.314Z,20.10
2022-10-02T23:09:07.700Z,20.10
2022-10-02T23:11:45.848Z,20.10
2022-10-02T23:14:39.400Z,20.10
2022-10-02T23:17:18.243Z,20.00
2022-10-02T23:19:56.313Z,20.00
2022-10-02T23:22:39.733Z,20.10
2022-10-02T23:25:24.938Z,20.10
2022-10-02T23:28:08.614Z,20.10
2022-10-02T23:30:44.630Z,20.10
2022-10-02T23:33:25.251Z,20.10
2022-10-02T23:36:26.562Z,20.00
2022-10-02T23:39:09.621Z,20.10
2022-10-02T23:41:46.905Z,20.10
2022-10-02T23:44:23.553Z,20.00
2022-10-02T23:46:50.104Z,20.00
2022-10-02T23:49:35.066Z,20.00
2022-10-02T23:52:24.219Z,20.00
2022-10-02T23:55:18.242Z,20.00
2022-10-02T23:58:02.422Z,20.00
